createdAt,value
2023-03-25T00:02:30.267Z,10.70
2023-03-25T00:05:20.712Z,10.70
2023-03-25T00:08:07.565Z,10.60
2023-03-25T00:10:55.013Z,10.70
2023-03-25T00:13:42.123Z,10.60
2023-03-25T00:16:28.817Z,10.60
2023-03-25T00:19:16.191Z,10.60
2023-03-25T00:22:03.881Z,10.50
2023-03-25T00:24:51.680Z,10.50
2023-03-25T00:27:38.537Z,10.50
2023-03-25T00:30:25.546Z,10.40
2023-03-25T00:33:13.314Z,10.50
2023-03-25T00:36:00.225Z,10.40
2023-03-25T00:38:49.985Z,10.40
2023-03-25T00:41:37.158Z,10.40
2023-03-25T00:44:24.048Z,10.40
2023-03-25T00:47:18.209Z,10.40
2023-03-25T00:50:06.109Z,10.50
2023-03-25T00:52:54.540Z,10.50
2023-03-25T00:55:42.301Z,10.50
2023-03-25T00:58:28.842Z,10.40
2023-03-25T01:01:17.328Z,10.50
2023-03-25T01:04:04.863Z,10.60
2023-03-25T01:06:52.232Z,10.60
2023-03-25T01:09:41.399Z,10.60
2023-03-25T01:12:29.426Z,10.60
2023-03-25T01:15:16.174Z,10.60
2023-03-25T01:18:02.738Z,10.50
2023-03-25T01:20:50.111Z,10.50
2023-03-25T01:23:36.847Z,10.50
2023-03-25T01:26:23.217Z,10.60
2023-03-25T01:29:12.115Z,10.60
2023-03-25T01:31:58.954Z,10.60
2023-03-25T01:34:46.891Z,10.60
2023-03-25T01:37:36.466Z,10.60
2023-03-25T01:40:24.808Z,10.60
2023-03-25T01:43:13.354Z,10.60
2023-03-25T01:46:01.804Z,10.60
2023-03-25T01:48:50.037Z,10.50
2023-03-25T01:51:41.595Z,10.40
2023-03-25T01:54:28.527Z,10.30
2023-03-25T01:57:19.525Z,10.10
2023-03-25T02:00:09.380Z,9.80
2023-03-25T02:03:02.808Z,9.50
2023-03-25T02:05:55.871Z,9.40
2023-03-25T02:08:42.881Z,9.30
2023-03-25T02:11:30.001Z,9.20
2023-03-25T02:14:21.830Z,9.10
2023-03-25T02:17:16.605Z,9.10
2023-03-25T02:20:38.384Z,9.10
2023-03-25T02:24:04.578Z,8.90
2023-03-25T02:27:27.252Z,8.90
2023-03-25T02:30:37.553Z,9.00
2023-03-25T02:33:51.963Z,9.20
2023-03-25T02:37:00.155Z,9.10
2023-03-25T02:39:52.506Z,9.10
2023-03-25T02:42:43.474Z,9.00
2023-03-25T02:45:32.755Z,9.00
2023-03-25T02:48:24.644Z,8.90
2023-03-25T02:51:15.601Z,8.90
2023-03-25T02:54:05.049Z,9.00
2023-03-25T02:56:57.565Z,9.00
2023-03-25T02:59:46.105Z,9.00
2023-03-25T03:02:34.090Z,9.00
2023-03-25T03:05:26.271Z,9.10
2023-03-25T03:08:25.441Z,9.20
2023-03-25T03:11:17.680Z,9.20
2023-03-25T03:14:20.366Z,9.20
2023-03-25T03:17:11.511Z,9.00
2023-03-25T03:20:03.352Z,9.10
2023-03-25T03:22:52.685Z,9.10
2023-03-25T03:25:46.420Z,9.10
2023-03-25T03:28:37.924Z,9.10
2023-03-25T03:31:48.303Z,9.10
2023-03-25T03:34:44.646Z,9.10
2023-03-25T03:37:36.582Z,9.10
2023-03-25T03:40:25.657Z,9.00
2023-03-25T03:43:16.653Z,9.10
2023-03-25T03:46:06.544Z,9.10
2023-03-25T03:48:57.909Z,9.10
2023-03-25T03:51:49.484Z,9.10
2023-03-25T03:54:42.116Z,9.20
2023-03-25T03:57:33.981Z,9.20
2023-03-25T04:00:26.684Z,9.30
2023-03-25T04:03:16.774Z,9.30
2023-03-25T04:06:13.478Z,9.30
2023-03-25T04:09:05.528Z,9.30
2023-03-25T04:11:56.390Z,9.30
2023-03-25T04:14:44.344Z,9.30
2023-03-25T04:17:32.971Z,9.30
2023-03-25T04:20:24.146Z,9.20
2023-03-25T04:23:16.085Z,9.20
2023-03-25T04:26:03.843Z,9.20
2023-03-25T04:28:50.828Z,9.20
2023-03-25T04:31:45.936Z,9.20
2023-03-25T04:34:32.856Z,9.30
2023-03-25T04:37:19.351Z,9.20
2023-03-25T04:40:09.258Z,9.30
2023-03-25T04:42:56.781Z,9.30
2023-03-25T04:45:49.704Z,9.20
2023-03-25T04:48:41.643Z,9.30
2023-03-25T04:51:30.197Z,9.20
2023-03-25T04:54:18.268Z,9.30
2023-03-25T04:57:08.581Z,9.30
2023-03-25T04:59:55.443Z,9.30
2023-03-25T05:02:45.936Z,9.30
2023-03-25T05:05:32.779Z,9.30
2023-03-25T05:08:21.631Z,9.30
2023-03-25T05:11:08.734Z,9.30
2023-03-25T05:13:56.656Z,9.30
2023-03-25T05:16:43.554Z,9.30
2023-03-25T05:19:30.841Z,9.30
2023-03-25T05:22:17.565Z,9.30
2023-03-25T05:25:04.387Z,9.30
2023-03-25T05:27:50.933Z,9.30
2023-03-25T05:30:41.631Z,9.30
2023-03-25T05:33:28.030Z,9.40
2023-03-25T05:36:16.299Z,9.40
2023-03-25T05:39:04.596Z,9.40
2023-03-25T05:41:55.489Z,9.40
2023-03-25T05:44:46.852Z,9.50
2023-03-25T05:47:34.795Z,9.50
2023-03-25T05:50:21.777Z,9.50
2023-03-25T05:53:09.400Z,9.60
2023-03-25T05:55:55.757Z,9.60
2023-03-25T05:58:42.082Z,9.70
2023-03-25T06:01:33.301Z,9.70
2023-03-25T06:04:23.772Z,9.70
2023-03-25T06:07:14.271Z,9.70
2023-03-25T06:10:02.218Z,10.00
2023-03-25T06:12:52.955Z,10.00
2023-03-25T06:15:41.863Z,10.00
2023-03-25T06:18:28.580Z,9.90
2023-03-25T06:21:16.351Z,9.90
2023-03-25T06:24:03.319Z,9.90
2023-03-25T06:26:50.030Z,9.90
2023-03-25T06:29:37.457Z,9.80
2023-03-25T06:32:25.883Z,9.70
2023-03-25T06:35:13.045Z,9.70
2023-03-25T06:38:01.313Z,9.80
2023-03-25T06:40:56.914Z,9.90
2023-03-25T06:43:43.639Z,9.90
2023-03-25T06:46:56.511Z,9.90
2023-03-25T06:49:52.470Z,10.00
2023-03-25T06:52:39.392Z,10.00
2023-03-25T06:55:27.285Z,10.20
2023-03-25T06:58:14.068Z,10.30
2023-03-25T07:01:03.848Z,10.20
2023-03-25T07:03:50.605Z,10.10
2023-03-25T07:06:37.009Z,10.10
2023-03-25T07:09:23.397Z,10.90
2023-03-25T07:12:11.104Z,11.70
2023-03-25T07:14:59.042Z,11.80
2023-03-25T07:17:49.122Z,12.40
2023-03-25T07:20:36.002Z,12.80
2023-03-25T07:23:22.449Z,13.10
2023-03-25T07:26:08.903Z,13.90
2023-03-25T07:28:56.624Z,14.40
2023-03-25T07:31:43.397Z,15.00
2023-03-25T07:34:30.779Z,15.00
2023-03-25T07:37:17.348Z,14.80
2023-03-25T07:40:03.948Z,15.10
2023-03-25T07:42:51.843Z,15.20
2023-03-25T07:45:44.729Z,14.80
2023-03-25T07:48:32.024Z,14.60
2023-03-25T07:51:18.778Z,14.80
2023-03-25T07:54:06.303Z,14.70
2023-03-25T07:56:54.465Z,14.30
2023-03-25T07:59:41.436Z,13.90
2023-03-25T08:02:29.519Z,13.20
2023-03-25T08:05:21.168Z,13.10
2023-03-25T08:08:07.782Z,13.10
2023-03-25T08:10:54.618Z,14.00
2023-03-25T08:13:41.309Z,14.10
2023-03-25T08:16:27.819Z,14.90
2023-03-25T08:19:16.533Z,15.40
2023-03-25T08:22:03.864Z,16.00
2023-03-25T08:24:50.501Z,15.80
2023-03-25T08:27:36.865Z,15.20
2023-03-25T08:30:23.613Z,14.40
2023-03-25T08:33:11.153Z,13.60
2023-03-25T08:35:59.600Z,12.90
2023-03-25T08:38:47.036Z,12.00
2023-03-25T08:41:33.560Z,11.70
2023-03-25T08:44:21.079Z,11.70
2023-03-25T08:47:07.459Z,11.70
2023-03-25T08:49:53.976Z,12.30
2023-03-25T08:52:42.588Z,13.20
2023-03-25T08:55:29.502Z,13.70
2023-03-25T08:58:16.355Z,13.80
2023-03-25T09:01:06.726Z,13.90
2023-03-25T09:03:55.357Z,13.80
2023-03-25T09:06:47.885Z,14.40
2023-03-25T09:09:36.276Z,15.00
2023-03-25T09:12:22.897Z,14.90
2023-03-25T09:15:11.574Z,14.50
2023-03-25T09:17:59.169Z,14.10
2023-03-25T09:20:47.692Z,14.90
2023-03-25T09:23:34.645Z,14.60
2023-03-25T09:26:22.464Z,14.90
2023-03-25T09:29:09.335Z,15.00
2023-03-25T09:31:58.155Z,14.30
2023-03-25T09:34:44.879Z,13.60
2023-03-25T09:37:31.619Z,12.70
2023-03-25T09:40:19.696Z,12.10
2023-03-25T09:43:36.346Z,12.10
2023-03-25T09:46:23.496Z,12.40
2023-03-25T09:49:15.539Z,12.70
2023-03-25T09:52:02.324Z,12.90
2023-03-25T09:54:53.414Z,13.20
2023-03-25T09:57:49.084Z,12.90
2023-03-25T10:00:37.108Z,12.50
2023-03-25T10:03:29.237Z,12.20
2023-03-25T10:06:20.286Z,12.00
2023-03-25T10:09:36.316Z,12.70
2023-03-25T10:12:38.532Z,13.50
2023-03-25T10:15:32.940Z,14.30
2023-03-25T10:18:41.904Z,14.70
2023-03-25T10:21:38.129Z,15.00
2023-03-25T10:24:28.955Z,15.20
2023-03-25T10:27:21.334Z,15.10
2023-03-25T10:30:14.006Z,15.00
2023-03-25T10:33:04.041Z,15.30
2023-03-25T10:35:52.268Z,15.20
2023-03-25T10:38:39.563Z,15.20
2023-03-25T10:41:31.205Z,15.60
2023-03-25T10:44:18.241Z,15.00
2023-03-25T10:47:07.593Z,14.30
2023-03-25T10:49:55.420Z,14.50
2023-03-25T10:52:43.927Z,15.10
2023-03-25T10:55:34.758Z,15.60
2023-03-25T10:58:21.879Z,15.70
2023-03-25T11:01:13.461Z,14.90
2023-03-25T11:04:01.617Z,14.30
2023-03-25T11:06:54.017Z,13.90
2023-03-25T11:09:42.299Z,13.50
2023-03-25T11:12:40.552Z,13.50
2023-03-25T11:15:33.162Z,13.90
2023-03-25T11:18:23.711Z,14.00
2023-03-25T11:21:13.673Z,13.70
2023-03-25T11:24:01.689Z,13.40
2023-03-25T11:26:52.270Z,13.70
2023-03-25T11:29:39.499Z,14.00
2023-03-25T11:32:33.974Z,14.30
2023-03-25T11:35:25.063Z,14.60
2023-03-25T11:38:16.626Z,14.90
2023-03-25T11:41:03.706Z,15.00
2023-03-25T11:43:51.952Z,15.30
2023-03-25T11:46:44.199Z,15.40
2023-03-25T11:49:37.118Z,15.40
2023-03-25T11:52:27.313Z,15.10
2023-03-25T11:55:19.738Z,14.50
2023-03-25T11:58:08.815Z,14.00
2023-03-25T12:01:04.814Z,13.80
2023-03-25T12:03:52.798Z,13.70
2023-03-25T12:06:52.999Z,13.30
2023-03-25T12:09:55.314Z,13.30
2023-03-25T12:12:48.837Z,13.30
2023-03-25T12:15:48.483Z,13.20
2023-03-25T12:18:48.725Z,13.20
2023-03-25T12:21:44.594Z,13.40
2023-03-25T12:24:53.710Z,13.80
2023-03-25T12:27:53.527Z,14.10
2023-03-25T12:30:50.726Z,14.30
2023-03-25T12:33:51.428Z,14.50
2023-03-25T12:36:48.867Z,14.60
2023-03-25T12:39:49.176Z,14.70
2023-03-25T12:42:45.544Z,14.90
2023-03-25T12:45:44.231Z,14.80
2023-03-25T12:48:42.844Z,14.90
2023-03-25T12:51:42.997Z,14.90
2023-03-25T12:54:43.889Z,14.30
2023-03-25T12:57:48.567Z,14.20
2023-03-25T13:00:42.975Z,14.50
2023-03-25T13:03:57.625Z,14.60
2023-03-25T13:06:49.849Z,14.60
2023-03-25T13:09:41.654Z,14.70
2023-03-25T13:12:32.686Z,14.60
2023-03-25T13:15:26.825Z,14.60
2023-03-25T13:18:19.561Z,14.60
2023-03-25T13:21:13.773Z,14.80
2023-03-25T13:24:07.167Z,15.00
2023-03-25T13:26:55.565Z,14.80
2023-03-25T13:29:45.351Z,14.40
2023-03-25T13:32:36.429Z,14.30
2023-03-25T13:35:32.360Z,14.40
2023-03-25T13:38:24.654Z,14.50
2023-03-25T13:41:18.171Z,14.70
2023-03-25T13:44:11.644Z,14.50
2023-03-25T13:47:06.196Z,14.00
2023-03-25T13:49:57.167Z,13.70
2023-03-25T13:52:47.977Z,13.70
2023-03-25T13:55:38.192Z,13.70
2023-03-25T13:58:51.242Z,13.50
2023-03-25T14:01:52.043Z,13.50
2023-03-25T14:04:52.075Z,13.50
2023-03-25T14:08:00.954Z,13.60
2023-03-25T14:10:52.746Z,13.70
2023-03-25T14:13:44.999Z,13.60
2023-03-25T14:16:36.824Z,13.50
2023-03-25T14:19:31.905Z,13.60
2023-03-25T14:22:19.772Z,13.60
2023-03-25T14:25:07.265Z,13.60
2023-03-25T14:27:54.795Z,13.60
2023-03-25T14:30:43.220Z,13.70
2023-03-25T14:34:13.428Z,13.70
2023-03-25T14:37:26.057Z,13.80
2023-03-25T14:41:01.284Z,13.90
2023-03-25T14:44:02.060Z,13.90
2023-03-25T14:46:50.337Z,13.80
2023-03-25T14:49:54.252Z,13.70
2023-03-25T14:52:44.324Z,13.70
2023-03-25T14:55:32.861Z,13.70
2023-03-25T14:58:24.643Z,13.70
2023-03-25T15:01:15.160Z,13.80
2023-03-25T15:04:15.275Z,13.90
2023-03-25T15:07:04.398Z,13.70
2023-03-25T15:09:53.655Z,13.70
2023-03-25T15:12:40.322Z,13.80
2023-03-25T15:15:30.915Z,13.80
2023-03-25T15:19:08.901Z,13.80
2023-03-25T15:22:20.452Z,13.80
2023-03-25T15:25:15.732Z,13.60
2023-03-25T15:28:17.214Z,13.60
2023-03-25T15:31:20.154Z,13.60
2023-03-25T15:34:26.524Z,13.50
2023-03-25T15:37:46.955Z,13.60
2023-03-25T15:40:50.455Z,13.60
2023-03-25T15:44:02.260Z,13.70
2023-03-25T15:47:09.239Z,13.90
2023-03-25T15:50:34.776Z,13.90
2023-03-25T15:53:43.415Z,13.80
2023-03-25T15:56:34.996Z,13.80
2023-03-25T15:59:33.480Z,13.70
2023-03-25T16:02:29.561Z,13.70
2023-03-25T16:05:18.485Z,13.60
2023-03-25T16:08:09.732Z,13.60
2023-03-25T16:10:56.178Z,13.50
2023-03-25T16:13:44.464Z,13.50
2023-03-25T16:16:35.953Z,13.50
2023-03-25T16:19:25.680Z,13.50
2023-03-25T16:22:18.839Z,13.50
2023-03-25T16:25:14.111Z,13.40
2023-03-25T16:28:02.942Z,13.50
2023-03-25T16:30:53.987Z,13.50
2023-03-25T16:33:41.172Z,13.40
2023-03-25T16:36:29.014Z,13.40
2023-03-25T16:39:16.662Z,13.40
2023-03-25T16:42:07.926Z,13.40
2023-03-25T16:44:55.435Z,13.20
2023-03-25T16:47:45.026Z,13.20
2023-03-25T16:50:34.211Z,13.20
2023-03-25T16:53:23.610Z,13.20
2023-03-25T16:56:24.522Z,13.20
2023-03-25T16:59:19.087Z,13.20
2023-03-25T17:02:24.917Z,13.10
2023-03-25T17:05:18.945Z,13.10
2023-03-25T17:08:10.324Z,13.00
2023-03-25T17:10:59.432Z,13.10
2023-03-25T17:13:50.780Z,13.10
2023-03-25T17:16:38.949Z,13.10
2023-03-25T17:19:30.377Z,13.00
2023-03-25T17:22:25.276Z,13.10
2023-03-25T17:25:24.960Z,13.00
2023-03-25T17:28:27.300Z,13.00
2023-03-25T17:31:27.881Z,13.00
2023-03-25T17:34:19.286Z,13.00
2023-03-25T17:37:08.311Z,12.90
2023-03-25T17:39:56.431Z,12.90
2023-03-25T17:42:43.008Z,12.90
2023-03-25T17:45:30.170Z,12.90
2023-03-25T17:48:18.063Z,12.90
2023-03-25T17:51:05.241Z,12.90
2023-03-25T17:53:52.564Z,12.90
2023-03-25T17:56:41.062Z,12.80
2023-03-25T17:59:28.115Z,12.80
2023-03-25T18:02:16.366Z,12.80
2023-03-25T18:05:06.222Z,12.70
2023-03-25T18:07:53.128Z,12.70
2023-03-25T18:10:40.634Z,12.70
2023-03-25T18:13:28.819Z,12.60
2023-03-25T18:16:16.544Z,12.60
2023-03-25T18:19:03.186Z,12.50
2023-03-25T18:21:50.225Z,12.50
2023-03-25T18:24:37.629Z,12.50
2023-03-25T18:27:33.250Z,12.40
2023-03-25T18:30:31.978Z,12.30
2023-03-25T18:33:19.037Z,12.30
2023-03-25T18:36:06.506Z,12.30
2023-03-25T18:38:54.220Z,12.30
2023-03-25T18:41:41.086Z,12.20
2023-03-25T18:44:30.618Z,12.30
2023-03-25T18:47:18.775Z,12.30
2023-03-25T18:50:23.257Z,12.20
2023-03-25T18:53:10.013Z,12.20
2023-03-25T18:55:59.775Z,12.20
2023-03-25T18:58:46.567Z,12.20
2023-03-25T19:01:33.326Z,12.10
2023-03-25T19:04:21.394Z,12.00
2023-03-25T19:07:07.882Z,12.00
2023-03-25T19:09:54.770Z,11.90
2023-03-25T19:12:41.171Z,11.90
2023-03-25T19:15:32.145Z,11.90
2023-03-25T19:18:21.408Z,11.80
2023-03-25T19:21:09.843Z,11.90
2023-03-25T19:23:56.604Z,11.80
2023-03-25T19:26:43.023Z,11.80
2023-03-25T19:29:29.543Z,11.80
2023-03-25T19:32:16.119Z,11.70
2023-03-25T19:35:02.803Z,11.60
2023-03-25T19:37:51.896Z,11.50
2023-03-25T19:40:39.179Z,11.40
2023-03-25T19:43:25.537Z,11.40
2023-03-25T19:46:12.685Z,11.30
2023-03-25T19:48:59.363Z,11.30
2023-03-25T19:51:45.673Z,11.30
2023-03-25T19:54:33.915Z,11.30
2023-03-25T19:57:21.052Z,11.30
2023-03-25T20:00:12.544Z,11.40
2023-03-25T20:03:01.653Z,11.40
2023-03-25T20:05:48.367Z,11.40
2023-03-25T20:08:34.838Z,11.40
2023-03-25T20:11:23.361Z,11.30
2023-03-25T20:14:10.271Z,11.40
2023-03-25T20:16:56.919Z,11.30
2023-03-25T20:19:43.485Z,11.30
2023-03-25T20:22:29.845Z,11.30
2023-03-25T20:25:17.611Z,11.30
2023-03-25T20:28:06.081Z,11.30
2023-03-25T20:30:53.186Z,11.40
2023-03-25T20:33:40.162Z,11.40
2023-03-25T20:36:26.418Z,11.50
2023-03-25T20:39:13.568Z,11.40
2023-03-25T20:42:00.327Z,11.50
2023-03-25T20:44:48.876Z,11.50
2023-03-25T20:47:36.052Z,11.50
2023-03-25T20:50:23.246Z,11.40
2023-03-25T20:53:09.841Z,11.40
2023-03-25T20:55:57.143Z,11.30
2023-03-25T20:58:44.956Z,11.30
2023-03-25T21:01:35.087Z,11.40
2023-03-25T21:04:21.876Z,11.40
2023-03-25T21:07:10.159Z,11.40
2023-03-25T21:09:57.237Z,11.50
2023-03-25T21:12:44.820Z,11.40
2023-03-25T21:15:31.580Z,11.40
2023-03-25T21:18:19.577Z,11.30
2023-03-25T21:21:06.863Z,11.30
2023-03-25T21:23:53.165Z,11.20
2023-03-25T21:26:43.487Z,11.10
2023-03-25T21:29:30.157Z,11.00
2023-03-25T21:32:16.824Z,10.80
2023-03-25T21:35:04.759Z,10.70
2023-03-25T21:37:51.577Z,10.70
2023-03-25T21:40:41.914Z,10.50
2023-03-25T21:43:28.463Z,10.50
2023-03-25T21:46:15.638Z,10.40
2023-03-25T21:49:03.746Z,10.20
2023-03-25T21:51:56.801Z,10.20
2023-03-25T21:54:44.201Z,10.20
2023-03-25T21:57:31.432Z,10.20
2023-03-25T22:00:19.706Z,10.20
2023-03-25T22:03:06.391Z,10.20
2023-03-25T22:05:53.386Z,10.10
2023-03-25T22:08:42.126Z,10.20
2023-03-25T22:11:30.128Z,10.30
2023-03-25T22:14:16.604Z,10.20
2023-03-25T22:17:03.519Z,10.10
2023-03-25T22:19:50.711Z,10.20
2023-03-25T22:22:37.342Z,10.10
2023-03-25T22:25:25.564Z,10.00
2023-03-25T22:28:12.008Z,10.00
2023-03-25T22:30:58.508Z,10.00
2023-03-25T22:33:46.310Z,9.90
2023-03-25T22:36:33.951Z,10.00
2023-03-25T22:39:23.053Z,10.00
2023-03-25T22:42:11.099Z,10.10
2023-03-25T22:44:57.815Z,10.10
2023-03-25T22:47:44.356Z,10.20
2023-03-25T22:50:31.573Z,10.20
2023-03-25T22:53:18.317Z,10.10
2023-03-25T22:56:05.229Z,10.20
2023-03-25T22:58:54.994Z,10.20
2023-03-25T23:01:42.530Z,10.20
2023-03-25T23:04:29.419Z,10.20
2023-03-25T23:07:15.942Z,10.30
2023-03-25T23:10:02.628Z,10.20
2023-03-25T23:12:49.948Z,10.30
2023-03-25T23:15:37.539Z,10.30
2023-03-25T23:18:24.509Z,10.20
2023-03-25T23:21:13.912Z,10.20
2023-03-25T23:24:02.872Z,10.10
2023-03-25T23:26:50.196Z,10.10
2023-03-25T23:29:37.372Z,10.20
2023-03-25T23:32:25.418Z,10.30
2023-03-25T23:35:12.138Z,10.30
2023-03-25T23:37:58.516Z,10.20
2023-03-25T23:40:44.897Z,10.30
2023-03-25T23:43:31.532Z,10.30
2023-03-25T23:46:19.900Z,10.30
2023-03-25T23:49:08.190Z,10.20
2023-03-25T23:51:54.726Z,10.10
2023-03-25T23:54:41.498Z,10.20
2023-03-25T23:57:27.861Z,10.10
